sensor_id;sensor_type;location;lat;lon;timestamp;P1;durP1;ratioP1;P2;durP2;ratioP2
79346;SDS011;68815;48.810;44.482;2023-12-20T00:01:44;7.4;;;3.3;;
79346;SDS011;68815;48.810;44.482;2023-12-20T00:04:47;6.8;;;3.1;;
79346;SDS011;68815;48.810;44.482;2023-12-20T00:07:48;6.7;;;3;;
79346;SDS011;68815;48.810;44.482;2023-12-20T00:10:50;6.9;;;2.9;;
79346;SDS011;68815;48.810;44.482;2023-12-20T00:13:52;6.9;;;3.3;;
79346;SDS011;68815;48.810;44.482;2023-12-20T00:16:54;7;;;3.4;;
79346;SDS011;68815;48.810;44.482;2023-12-20T00:19:56;7.3;;;3.2;;
79346;SDS011;68815;48.810;44.482;2023-12-20T00:22:58;6.8;;;3;;
79346;SDS011;68815;48.810;44.482;2023-12-20T00:26:00;8.3;;;3.4;;
79346;SDS011;68815;48.810;44.482;2023-12-20T00:29:02;6.7;;;2.9;;
79346;SDS011;68815;48.810;44.482;2023-12-20T00:32:04;6.7;;;3.1;;
79346;SDS011;68815;48.810;44.482;2023-12-20T00:35:06;7.6;;;3.1;;
79346;SDS011;68815;48.810;44.482;2023-12-20T00:38:08;7.4;;;3.4;;
79346;SDS011;68815;48.810;44.482;2023-12-20T00:41:10;7.3;;;3.3;;
79346;SDS011;68815;48.810;44.482;2023-12-20T00:44:11;6;;;3;;
79346;SDS011;68815;48.810;44.482;2023-12-20T00:47:13;8.1;;;3.6;;
79346;SDS011;68815;48.810;44.482;2023-12-20T00:50:15;6.4;;;3.2;;
79346;SDS011;68815;48.810;44.482;2023-12-20T00:53:17;7.1;;;3.3;;
79346;SDS011;68815;48.810;44.482;2023-12-20T00:56:19;6.6;;;3.1;;
79346;SDS011;68815;48.810;44.482;2023-12-20T00:59:21;5.7;;;2.5;;
79346;SDS011;68815;48.810;44.482;2023-12-20T01:02:22;7.2;;;3;;
79346;SDS011;68815;48.810;44.482;2023-12-20T01:05:25;5.4;;;2.6;;
79346;SDS011;68815;48.810;44.482;2023-12-20T01:08:27;5.7;;;2.5;;
79346;SDS011;68815;48.810;44.482;2023-12-20T01:11:29;6.2;;;2.6;;
79346;SDS011;68815;48.810;44.482;2023-12-20T01:14:31;4.9;;;2.2;;
79346;SDS011;68815;48.810;44.482;2023-12-20T01:17:32;4.6;;;2.2;;
79346;SDS011;68815;48.810;44.482;2023-12-20T01:20:34;4.2;;;2;;
79346;SDS011;68815;48.810;44.482;2023-12-20T01:23:36;5.4;;;2.4;;
79346;SDS011;68815;48.810;44.482;2023-12-20T01:26:38;4.4;;;2.2;;
79346;SDS011;68815;48.810;44.482;2023-12-20T01:29:40;5;;;2.6;;
79346;SDS011;68815;48.810;44.482;2023-12-20T01:32:42;5.5;;;2.4;;
79346;SDS011;68815;48.810;44.482;2023-12-20T01:35:43;4.7;;;2.5;;
79346;SDS011;68815;48.810;44.482;2023-12-20T01:38:45;4.8;;;2.4;;
79346;SDS011;68815;48.810;44.482;2023-12-20T01:41:47;5.1;;;2;;
79346;SDS011;68815;48.810;44.482;2023-12-20T01:44:49;4.3;;;2.3;;
79346;SDS011;68815;48.810;44.482;2023-12-20T01:47:51;4.9;;;2.3;;
79346;SDS011;68815;48.810;44.482;2023-12-20T01:50:53;4.7;;;2;;
79346;SDS011;68815;48.810;44.482;2023-12-20T01:53:55;4.8;;;2.2;;
79346;SDS011;68815;48.810;44.482;2023-12-20T01:56:59;4.2;;;2.1;;
79346;SDS011;68815;48.810;44.482;2023-12-20T02:00:01;5;;;2.1;;
79346;SDS011;68815;48.810;44.482;2023-12-20T02:03:11;5;;;2.1;;
79346;SDS011;68815;48.810;44.482;2023-12-20T02:06:13;5;;;2.3;;
79346;SDS011;68815;48.810;44.482;2023-12-20T02:09:16;4.8;;;2.2;;
79346;SDS011;68815;48.810;44.482;2023-12-20T02:12:18;5.8;;;2.2;;
79346;SDS011;68815;48.810;44.482;2023-12-20T02:15:20;5;;;2.2;;
79346;SDS011;68815;48.810;44.482;2023-12-20T02:18:22;4.8;;;2.3;;
79346;SDS011;68815;48.810;44.482;2023-12-20T02:21:25;4.9;;;2.1;;
79346;SDS011;68815;48.810;44.482;2023-12-20T02:24:27;4.7;;;2;;
79346;SDS011;68815;48.810;44.482;2023-12-20T02:27:29;5.3;;;2.2;;
79346;SDS011;68815;48.810;44.482;2023-12-20T02:30:31;3.9;;;1.8;;
79346;SDS011;68815;48.810;44.482;2023-12-20T02:33:33;4.7;;;2.2;;
79346;SDS011;68815;48.810;44.482;2023-12-20T02:36:34;5.1;;;2.2;;
79346;SDS011;68815;48.810;44.482;2023-12-20T02:39:36;4.9;;;1.9;;
79346;SDS011;68815;48.810;44.482;2023-12-20T02:42:38;6.3;;;2.4;;
79346;SDS011;68815;48.810;44.482;2023-12-20T02:45:40;4.7;;;2;;
79346;SDS011;68815;48.810;44.482;2023-12-20T02:48:42;5;;;2.2;;
79346;SDS011;68815;48.810;44.482;2023-12-20T02:51:44;4.8;;;2.1;;
79346;SDS011;68815;48.810;44.482;2023-12-20T02:54:46;4.4;;;1.7;;
79346;SDS011;68815;48.810;44.482;2023-12-20T02:57:47;5;;;2.2;;
79346;SDS011;68815;48.810;44.482;2023-12-20T03:00:50;5;;;2;;
79346;SDS011;68815;48.810;44.482;2023-12-20T03:03:52;6.2;;;2.2;;
79346;SDS011;68815;48.810;44.482;2023-12-20T03:06:55;5.4;;;2;;
79346;SDS011;68815;48.810;44.482;2023-12-20T03:09:56;5.2;;;2.3;;
79346;SDS011;68815;48.810;44.482;2023-12-20T03:12:58;4.8;;;2;;
79346;SDS011;68815;48.810;44.482;2023-12-20T03:16:00;4.5;;;2;;
79346;SDS011;68815;48.810;44.482;2023-12-20T03:19:02;5.1;;;2.4;;
79346;SDS011;68815;48.810;44.482;2023-12-20T03:22:04;5.9;;;2.4;;
79346;SDS011;68815;48.810;44.482;2023-12-20T03:25:06;5.3;;;2.4;;
79346;SDS011;68815;48.810;44.482;2023-12-20T03:28:08;5.7;;;2.2;;
79346;SDS011;68815;48.810;44.482;2023-12-20T03:31:10;4.8;;;2.1;;
79346;SDS011;68815;48.810;44.482;2023-12-20T03:34:11;5.4;;;2.4;;
79346;SDS011;68815;48.810;44.482;2023-12-20T03:37:13;4.3;;;2;;
79346;SDS011;68815;48.810;44.482;2023-12-20T03:40:15;4.6;;;1.9;;
79346;SDS011;68815;48.810;44.482;2023-12-20T03:43:17;4.7;;;2.2;;
79346;SDS011;68815;48.810;44.482;2023-12-20T03:46:19;5.3;;;2.2;;
79346;SDS011;68815;48.810;44.482;2023-12-20T03:49:21;5;;;2.3;;
79346;SDS011;68815;48.810;44.482;2023-12-20T03:52:22;5.9;;;2.5;;
79346;SDS011;68815;48.810;44.482;2023-12-20T03:55:24;5.2;;;2.4;;
79346;SDS011;68815;48.810;44.482;2023-12-20T03:58:26;5.1;;;2.1;;
79346;SDS011;68815;48.810;44.482;2023-12-20T04:01:28;5.2;;;2.2;;
79346;SDS011;68815;48.810;44.482;2023-12-20T04:04:29;4.8;;;2.3;;
79346;SDS011;68815;48.810;44.482;2023-12-20T04:07:32;4.7;;;2.4;;
79346;SDS011;68815;48.810;44.482;2023-12-20T04:10:34;5;;;2.3;;
79346;SDS011;68815;48.810;44.482;2023-12-20T04:13:36;5.4;;;2.5;;
79346;SDS011;68815;48.810;44.482;2023-12-20T04:16:38;4.9;;;2.3;;
79346;SDS011;68815;48.810;44.482;2023-12-20T04:19:40;6.2;;;2.7;;
79346;SDS011;68815;48.810;44.482;2023-12-20T04:22:42;6.2;;;2.4;;
79346;SDS011;68815;48.810;44.482;2023-12-20T04:25:44;4.8;;;2.2;;
79346;SDS011;68815;48.810;44.482;2023-12-20T04:28:46;4.8;;;2.1;;
79346;SDS011;68815;48.810;44.482;2023-12-20T04:31:48;6;;;2.4;;
79346;SDS011;68815;48.810;44.482;2023-12-20T04:34:49;6.7;;;2.6;;
79346;SDS011;68815;48.810;44.482;2023-12-20T04:37:51;5.7;;;2.7;;
79346;SDS011;68815;48.810;44.482;2023-12-20T04:40:53;5.7;;;2;;
79346;SDS011;68815;48.810;44.482;2023-12-20T04:43:55;5.5;;;2.4;;
79346;SDS011;68815;48.810;44.482;2023-12-20T04:46:57;5.6;;;2.3;;
79346;SDS011;68815;48.810;44.482;2023-12-20T04:49:59;5.2;;;2.3;;
79346;SDS011;68815;48.810;44.482;2023-12-20T04:53:00;5.7;;;2.4;;
79346;SDS011;68815;48.810;44.482;2023-12-20T04:56:02;4.5;;;2.1;;
79346;SDS011;68815;48.810;44.482;2023-12-20T04:59:04;4.6;;;2.3;;
79346;SDS011;68815;48.810;44.482;2023-12-20T05:02:06;5.2;;;2.2;;
79346;SDS011;68815;48.810;44.482;2023-12-20T05:05:08;5.6;;;2.2;;
79346;SDS011;68815;48.810;44.482;2023-12-20T05:08:10;5.1;;;2.3;;
79346;SDS011;68815;48.810;44.482;2023-12-20T05:11:13;5.6;;;2.4;;
79346;SDS011;68815;48.810;44.482;2023-12-20T05:14:14;5;;;2.2;;
79346;SDS011;68815;48.810;44.482;2023-12-20T05:17:16;6.5;;;2.6;;
79346;SDS011;68815;48.810;44.482;2023-12-20T05:20:18;5.2;;;2.4;;
79346;SDS011;68815;48.810;44.482;2023-12-20T05:23:20;5.5;;;2.4;;
79346;SDS011;68815;48.810;44.482;2023-12-20T05:26:22;5.3;;;2.5;;
79346;SDS011;68815;48.810;44.482;2023-12-20T05:29:24;5.8;;;2.5;;
79346;SDS011;68815;48.810;44.482;2023-12-20T05:32:26;5.2;;;2.3;;
79346;SDS011;68815;48.810;44.482;2023-12-20T05:35:27;5.5;;;2.3;;
79346;SDS011;68815;48.810;44.482;2023-12-20T05:38:29;5;;;2.5;;
79346;SDS011;68815;48.810;44.482;2023-12-20T05:41:31;5.3;;;2.2;;
79346;SDS011;68815;48.810;44.482;2023-12-20T05:44:33;5.2;;;2.1;;
79346;SDS011;68815;48.810;44.482;2023-12-20T05:47:35;4.2;;;2;;
79346;SDS011;68815;48.810;44.482;2023-12-20T05:50:37;4.8;;;1.9;;
79346;SDS011;68815;48.810;44.482;2023-12-20T05:53:39;5.6;;;2;;
79346;SDS011;68815;48.810;44.482;2023-12-20T05:56:41;5.2;;;2.2;;
79346;SDS011;68815;48.810;44.482;2023-12-20T05:59:43;6.4;;;2.7;;
79346;SDS011;68815;48.810;44.482;2023-12-20T06:02:45;6.3;;;2.4;;
79346;SDS011;68815;48.810;44.482;2023-12-20T06:05:47;6.2;;;2.3;;
79346;SDS011;68815;48.810;44.482;2023-12-20T06:08:49;6.6;;;2.7;;
79346;SDS011;68815;48.810;44.482;2023-12-20T06:11:51;5.8;;;2.7;;
79346;SDS011;68815;48.810;44.482;2023-12-20T06:14:54;5.7;;;2.5;;
79346;SDS011;68815;48.810;44.482;2023-12-20T06:17:55;5.3;;;2.1;;
79346;SDS011;68815;48.810;44.482;2023-12-20T06:20:57;6.3;;;2.8;;
79346;SDS011;68815;48.810;44.482;2023-12-20T06:23:59;5.6;;;2.5;;
79346;SDS011;68815;48.810;44.482;2023-12-20T06:27:01;6.1;;;2.7;;
79346;SDS011;68815;48.810;44.482;2023-12-20T06:30:04;6.1;;;2.7;;
79346;SDS011;68815;48.810;44.482;2023-12-20T06:33:07;6.3;;;2.8;;
79346;SDS011;68815;48.810;44.482;2023-12-20T06:36:11;7;;;2.9;;
79346;SDS011;68815;48.810;44.482;2023-12-20T06:39:13;7.1;;;2.6;;
79346;SDS011;68815;48.810;44.482;2023-12-20T06:42:15;5.5;;;2.5;;
79346;SDS011;68815;48.810;44.482;2023-12-20T06:45:17;5.7;;;2.5;;
79346;SDS011;68815;48.810;44.482;2023-12-20T06:48:18;7.2;;;2.4;;
79346;SDS011;68815;48.810;44.482;2023-12-20T06:51:20;6.4;;;2.2;;
79346;SDS011;68815;48.810;44.482;2023-12-20T06:54:22;6.1;;;2.5;;
79346;SDS011;68815;48.810;44.482;2023-12-20T06:57:24;7.1;;;2.6;;
79346;SDS011;68815;48.810;44.482;2023-12-20T07:00:26;5.9;;;2.4;;
79346;SDS011;68815;48.810;44.482;2023-12-20T07:03:29;7.1;;;2.8;;
79346;SDS011;68815;48.810;44.482;2023-12-20T07:06:30;6.4;;;2.6;;
79346;SDS011;68815;48.810;44.482;2023-12-20T07:09:32;4.9;;;2.6;;
79346;SDS011;68815;48.810;44.482;2023-12-20T07:12:35;5.1;;;2.4;;
79346;SDS011;68815;48.810;44.482;2023-12-20T07:15:38;5.5;;;2.6;;
79346;SDS011;68815;48.810;44.482;2023-12-20T07:18:39;5.5;;;2.5;;
79346;SDS011;68815;48.810;44.482;2023-12-20T07:21:41;5.9;;;2.4;;
79346;SDS011;68815;48.810;44.482;2023-12-20T07:24:43;5.9;;;2.6;;
79346;SDS011;68815;48.810;44.482;2023-12-20T07:27:45;8.5;;;2.8;;
79346;SDS011;68815;48.810;44.482;2023-12-20T07:30:47;6.2;;;2.7;;
79346;SDS011;68815;48.810;44.482;2023-12-20T07:33:49;6.9;;;2.8;;
79346;SDS011;68815;48.810;44.482;2023-12-20T07:36:51;5.4;;;2.6;;
79346;SDS011;68815;48.810;44.482;2023-12-20T07:39:52;5.9;;;2.9;;
79346;SDS011;68815;48.810;44.482;2023-12-20T07:42:54;6.1;;;2.5;;
79346;SDS011;68815;48.810;44.482;2023-12-20T07:45:56;7.3;;;3;;
79346;SDS011;68815;48.810;44.482;2023-12-20T07:48:58;6.2;;;2.7;;
79346;SDS011;68815;48.810;44.482;2023-12-20T07:52:00;8;;;3.2;;
79346;SDS011;68815;48.810;44.482;2023-12-20T07:55:02;7.3;;;3.5;;
79346;SDS011;68815;48.810;44.482;2023-12-20T07:58:05;6.8;;;3;;
79346;SDS011;68815;48.810;44.482;2023-12-20T08:01:07;7.8;;;2.6;;
79346;SDS011;68815;48.810;44.482;2023-12-20T08:04:09;7;;;2.9;;
79346;SDS011;68815;48.810;44.482;2023-12-20T08:07:11;6.7;;;3.2;;
79346;SDS011;68815;48.810;44.482;2023-12-20T08:10:13;6.7;;;3.1;;
79346;SDS011;68815;48.810;44.482;2023-12-20T08:13:14;6.4;;;3.2;;
79346;SDS011;68815;48.810;44.482;2023-12-20T08:16:17;5.8;;;2.7;;
79346;SDS011;68815;48.810;44.482;2023-12-20T08:19:19;6.1;;;2.4;;
79346;SDS011;68815;48.810;44.482;2023-12-20T08:22:21;5.9;;;2.6;;
79346;SDS011;68815;48.810;44.482;2023-12-20T08:25:23;5.8;;;2.6;;
79346;SDS011;68815;48.810;44.482;2023-12-20T08:28:25;5.6;;;2.7;;
79346;SDS011;68815;48.810;44.482;2023-12-20T08:31:27;6.5;;;2.5;;
79346;SDS011;68815;48.810;44.482;2023-12-20T08:34:29;5.2;;;2.2;;
79346;SDS011;68815;48.810;44.482;2023-12-20T08:37:31;5.9;;;2.7;;
79346;SDS011;68815;48.810;44.482;2023-12-20T08:40:33;5.3;;;2.3;;
79346;SDS011;68815;48.810;44.482;2023-12-20T08:43:35;6.2;;;2.6;;
79346;SDS011;68815;48.810;44.482;2023-12-20T08:46:37;6.7;;;2.4;;
79346;SDS011;68815;48.810;44.482;2023-12-20T08:49:39;5.3;;;2.2;;
79346;SDS011;68815;48.810;44.482;2023-12-20T08:52:41;6.7;;;2.5;;
79346;SDS011;68815;48.810;44.482;2023-12-20T08:55:42;5.6;;;2.4;;
79346;SDS011;68815;48.810;44.482;2023-12-20T08:58:45;5.6;;;2.7;;
79346;SDS011;68815;48.810;44.482;2023-12-20T09:01:47;7;;;2.8;;
79346;SDS011;68815;48.810;44.482;2023-12-20T09:04:49;5.5;;;2.3;;
79346;SDS011;68815;48.810;44.482;2023-12-20T09:07:50;6.4;;;2.9;;
79346;SDS011;68815;48.810;44.482;2023-12-20T09:10:52;5.8;;;2.4;;
79346;SDS011;68815;48.810;44.482;2023-12-20T09:13:54;6.2;;;2.6;;
79346;SDS011;68815;48.810;44.482;2023-12-20T09:16:57;6.4;;;2.4;;
79346;SDS011;68815;48.810;44.482;2023-12-20T09:19:59;6;;;2.5;;
79346;SDS011;68815;48.810;44.482;2023-12-20T09:23:00;6.8;;;2.7;;
79346;SDS011;68815;48.810;44.482;2023-12-20T09:26:03;6.4;;;2.9;;
79346;SDS011;68815;48.810;44.482;2023-12-20T09:29:05;6.8;;;2.6;;
79346;SDS011;68815;48.810;44.482;2023-12-20T09:32:06;5.5;;;2.4;;
79346;SDS011;68815;48.810;44.482;2023-12-20T09:35:08;6.7;;;2.7;;
79346;SDS011;68815;48.810;44.482;2023-12-20T09:38:10;6.3;;;2.8;;
79346;SDS011;68815;48.810;44.482;2023-12-20T09:41:12;5.2;;;2.2;;
79346;SDS011;68815;48.810;44.482;2023-12-20T09:44:15;5.3;;;2.4;;
79346;SDS011;68815;48.810;44.482;2023-12-20T09:47:18;7.1;;;2.7;;
79346;SDS011;68815;48.810;44.482;2023-12-20T09:50:25;5.8;;;2.7;;
79346;SDS011;68815;48.810;44.482;2023-12-20T09:53:27;6;;;2.6;;
79346;SDS011;68815;48.810;44.482;2023-12-20T09:56:31;7.3;;;2.9;;
79346;SDS011;68815;48.810;44.482;2023-12-20T09:59:33;6.8;;;3.3;;
79346;SDS011;68815;48.810;44.482;2023-12-20T10:02:34;6.3;;;3;;
79346;SDS011;68815;48.810;44.482;2023-12-20T10:05:39;5.8;;;2.6;;
79346;SDS011;68815;48.810;44.482;2023-12-20T10:08:44;5.4;;;2.8;;
79346;SDS011;68815;48.810;44.482;2023-12-20T10:11:46;6.6;;;3;;
79346;SDS011;68815;48.810;44.482;2023-12-20T10:14:48;6.6;;;2.9;;
79346;SDS011;68815;48.810;44.482;2023-12-20T10:17:50;6.6;;;2.8;;
79346;SDS011;68815;48.810;44.482;2023-12-20T10:20:52;6.4;;;3;;
79346;SDS011;68815;48.810;44.482;2023-12-20T10:23:54;5.9;;;2.6;;
79346;SDS011;68815;48.810;44.482;2023-12-20T10:27:01;7.3;;;2.9;;
79346;SDS011;68815;48.810;44.482;2023-12-20T10:30:05;7;;;3;;
79346;SDS011;68815;48.810;44.482;2023-12-20T10:33:07;6.1;;;2.7;;
79346;SDS011;68815;48.810;44.482;2023-12-20T10:36:10;6.4;;;2.8;;
79346;SDS011;68815;48.810;44.482;2023-12-20T10:39:12;7.8;;;2.8;;
79346;SDS011;68815;48.810;44.482;2023-12-20T10:42:16;7.9;;;3.3;;
79346;SDS011;68815;48.810;44.482;2023-12-20T10:45:19;6.1;;;2.6;;
79346;SDS011;68815;48.810;44.482;2023-12-20T10:48:21;6.9;;;3.3;;
79346;SDS011;68815;48.810;44.482;2023-12-20T10:51:25;8.4;;;3.2;;
79346;SDS011;68815;48.810;44.482;2023-12-20T10:54:27;6.4;;;2.4;;
79346;SDS011;68815;48.810;44.482;2023-12-20T10:57:28;7.8;;;3.2;;
79346;SDS011;68815;48.810;44.482;2023-12-20T11:00:31;6.4;;;3;;
79346;SDS011;68815;48.810;44.482;2023-12-20T11:03:35;6.7;;;3.1;;
79346;SDS011;68815;48.810;44.482;2023-12-20T11:06:40;7.1;;;3.3;;
79346;SDS011;68815;48.810;44.482;2023-12-20T11:09:52;7.9;;;3.5;;
79346;SDS011;68815;48.810;44.482;2023-12-20T11:13:02;6.4;;;3;;
79346;SDS011;68815;48.810;44.482;2023-12-20T11:16:10;7.5;;;2.6;;
79346;SDS011;68815;48.810;44.482;2023-12-20T11:19:12;6.3;;;2.8;;
79346;SDS011;68815;48.810;44.482;2023-12-20T11:22:14;6.7;;;2.7;;
79346;SDS011;68815;48.810;44.482;2023-12-20T11:25:16;6.8;;;2.8;;
79346;SDS011;68815;48.810;44.482;2023-12-20T11:28:21;6.7;;;2.8;;
79346;SDS011;68815;48.810;44.482;2023-12-20T11:31:24;6.6;;;3;;
79346;SDS011;68815;48.810;44.482;2023-12-20T11:34:31;7.4;;;3.3;;
79346;SDS011;68815;48.810;44.482;2023-12-20T11:37:36;5.8;;;2.8;;
79346;SDS011;68815;48.810;44.482;2023-12-20T11:40:39;6;;;3.2;;
79346;SDS011;68815;48.810;44.482;2023-12-20T11:43:43;6.9;;;2.6;;
79346;SDS011;68815;48.810;44.482;2023-12-20T11:46:46;6.2;;;2.7;;
79346;SDS011;68815;48.810;44.482;2023-12-20T11:49:47;8.2;;;3;;
79346;SDS011;68815;48.810;44.482;2023-12-20T11:52:50;5.9;;;2.5;;
79346;SDS011;68815;48.810;44.482;2023-12-20T11:55:53;7.5;;;3.2;;
79346;SDS011;68815;48.810;44.482;2023-12-20T11:58:56;6.3;;;2.8;;
79346;SDS011;68815;48.810;44.482;2023-12-20T12:01:58;7.6;;;3.1;;
79346;SDS011;68815;48.810;44.482;2023-12-20T12:05:00;7;;;3;;
79346;SDS011;68815;48.810;44.482;2023-12-20T12:08:02;6.3;;;2.8;;
79346;SDS011;68815;48.810;44.482;2023-12-20T12:11:04;6.4;;;2.8;;
79346;SDS011;68815;48.810;44.482;2023-12-20T12:14:07;5.6;;;2.7;;
79346;SDS011;68815;48.810;44.482;2023-12-20T12:17:10;6.6;;;3.2;;
79346;SDS011;68815;48.810;44.482;2023-12-20T12:20:12;6.1;;;2.6;;
79346;SDS011;68815;48.810;44.482;2023-12-20T12:23:14;5.8;;;2.7;;
79346;SDS011;68815;48.810;44.482;2023-12-20T12:26:25;6.6;;;2.9;;
79346;SDS011;68815;48.810;44.482;2023-12-20T12:29:27;7.1;;;3.2;;
79346;SDS011;68815;48.810;44.482;2023-12-20T12:32:29;6.8;;;2.8;;
79346;SDS011;68815;48.810;44.482;2023-12-20T12:35:31;6.6;;;2.9;;
79346;SDS011;68815;48.810;44.482;2023-12-20T12:38:33;6.2;;;2.8;;
79346;SDS011;68815;48.810;44.482;2023-12-20T12:41:35;6.4;;;2.7;;
79346;SDS011;68815;48.810;44.482;2023-12-20T12:44:37;6.2;;;2.9;;
79346;SDS011;68815;48.810;44.482;2023-12-20T12:47:39;7.1;;;2.7;;
79346;SDS011;68815;48.810;44.482;2023-12-20T12:50:41;6.9;;;3.3;;
79346;SDS011;68815;48.810;44.482;2023-12-20T12:53:43;7;;;3.1;;
79346;SDS011;68815;48.810;44.482;2023-12-20T12:56:45;7.5;;;3.3;;
79346;SDS011;68815;48.810;44.482;2023-12-20T12:59:47;7.3;;;3.1;;
79346;SDS011;68815;48.810;44.482;2023-12-20T13:02:49;8.2;;;2.8;;
79346;SDS011;68815;48.810;44.482;2023-12-20T13:05:51;7;;;3.1;;
79346;SDS011;68815;48.810;44.482;2023-12-20T13:08:53;7;;;3;;
79346;SDS011;68815;48.810;44.482;2023-12-20T13:11:54;6.5;;;3;;
79346;SDS011;68815;48.810;44.482;2023-12-20T13:14:56;8.3;;;3.4;;
79346;SDS011;68815;48.810;44.482;2023-12-20T13:17:58;8.6;;;3.5;;
79346;SDS011;68815;48.810;44.482;2023-12-20T13:21:00;8;;;3.5;;
79346;SDS011;68815;48.810;44.482;2023-12-20T13:24:02;8.5;;;3.8;;
79346;SDS011;68815;48.810;44.482;2023-12-20T13:27:05;8.9;;;3.8;;
79346;SDS011;68815;48.810;44.482;2023-12-20T13:30:08;10.5;;;4.9;;
79346;SDS011;68815;48.810;44.482;2023-12-20T13:33:10;10.5;;;5;;
79346;SDS011;68815;48.810;44.482;2023-12-20T13:36:13;10;;;5.1;;
79346;SDS011;68815;48.810;44.482;2023-12-20T13:39:14;12.7;;;4.9;;
79346;SDS011;68815;48.810;44.482;2023-12-20T13:42:16;11.5;;;4.9;;
79346;SDS011;68815;48.810;44.482;2023-12-20T13:45:18;10.1;;;4.2;;
79346;SDS011;68815;48.810;44.482;2023-12-20T13:48:21;10.8;;;4.9;;
79346;SDS011;68815;48.810;44.482;2023-12-20T13:51:23;10.7;;;4.3;;
79346;SDS011;68815;48.810;44.482;2023-12-20T13:54:25;9.7;;;4.6;;
79346;SDS011;68815;48.810;44.482;2023-12-20T13:57:27;11.4;;;4.8;;
79346;SDS011;68815;48.810;44.482;2023-12-20T14:00:28;11.2;;;4.7;;
79346;SDS011;68815;48.810;44.482;2023-12-20T14:03:30;11.7;;;4.8;;
79346;SDS011;68815;48.810;44.482;2023-12-20T14:06:32;10;;;5.4;;
79346;SDS011;68815;48.810;44.482;2023-12-20T14:09:34;11.4;;;4.8;;
79346;SDS011;68815;48.810;44.482;2023-12-20T14:12:36;13.1;;;5.8;;
79346;SDS011;68815;48.810;44.482;2023-12-20T14:15:39;12.5;;;5;;
79346;SDS011;68815;48.810;44.482;2023-12-20T14:18:41;10.7;;;5;;
79346;SDS011;68815;48.810;44.482;2023-12-20T14:21:43;10.1;;;4.8;;
79346;SDS011;68815;48.810;44.482;2023-12-20T14:24:45;10.5;;;4.8;;
79346;SDS011;68815;48.810;44.482;2023-12-20T14:27:48;8.6;;;4.1;;
79346;SDS011;68815;48.810;44.482;2023-12-20T14:30:50;9.6;;;4.7;;
79346;SDS011;68815;48.810;44.482;2023-12-20T14:33:52;11.4;;;4.8;;
79346;SDS011;68815;48.810;44.482;2023-12-20T14:36:54;10.9;;;4.9;;
79346;SDS011;68815;48.810;44.482;2023-12-20T14:39:56;10.8;;;5.1;;
79346;SDS011;68815;48.810;44.482;2023-12-20T14:42:58;10.1;;;4.7;;
79346;SDS011;68815;48.810;44.482;2023-12-20T14:46:00;9.6;;;4.6;;
79346;SDS011;68815;48.810;44.482;2023-12-20T14:49:02;10.4;;;5;;
79346;SDS011;68815;48.810;44.482;2023-12-20T14:52:04;10.3;;;4.4;;
79346;SDS011;68815;48.810;44.482;2023-12-20T14:55:06;10;;;4.6;;
79346;SDS011;68815;48.810;44.482;2023-12-20T14:58:09;10.1;;;4.3;;
79346;SDS011;68815;48.810;44.482;2023-12-20T15:01:11;9;;;4.4;;
79346;SDS011;68815;48.810;44.482;2023-12-20T15:04:13;9.2;;;4.4;;
79346;SDS011;68815;48.810;44.482;2023-12-20T15:07:16;9.6;;;4.7;;
79346;SDS011;68815;48.810;44.482;2023-12-20T15:10:17;9.3;;;4.4;;
79346;SDS011;68815;48.810;44.482;2023-12-20T15:13:20;10.4;;;4.7;;
79346;SDS011;68815;48.810;44.482;2023-12-20T15:16:22;9.9;;;4.8;;
79346;SDS011;68815;48.810;44.482;2023-12-20T15:19:24;10.9;;;4.9;;
79346;SDS011;68815;48.810;44.482;2023-12-20T15:22:26;10.8;;;4.7;;
79346;SDS011;68815;48.810;44.482;2023-12-20T15:25:28;11;;;4.8;;
79346;SDS011;68815;48.810;44.482;2023-12-20T15:28:31;9.3;;;4.2;;
79346;SDS011;68815;48.810;44.482;2023-12-20T15:31:34;11.6;;;4.9;;
79346;SDS011;68815;48.810;44.482;2023-12-20T15:34:36;9.4;;;4.3;;
79346;SDS011;68815;48.810;44.482;2023-12-20T15:37:38;10.9;;;4.5;;
79346;SDS011;68815;48.810;44.482;2023-12-20T15:40:40;9.4;;;4.4;;
79346;SDS011;68815;48.810;44.482;2023-12-20T15:43:42;12.2;;;5.3;;
79346;SDS011;68815;48.810;44.482;2023-12-20T15:46:45;9.8;;;4.8;;
79346;SDS011;68815;48.810;44.482;2023-12-20T15:49:46;11.2;;;5.4;;
79346;SDS011;68815;48.810;44.482;2023-12-20T15:52:48;11.6;;;5.5;;
79346;SDS011;68815;48.810;44.482;2023-12-20T15:55:50;11.2;;;5.1;;
79346;SDS011;68815;48.810;44.482;2023-12-20T15:58:52;10.6;;;5.4;;
79346;SDS011;68815;48.810;44.482;2023-12-20T16:01:54;12.5;;;5.6;;
79346;SDS011;68815;48.810;44.482;2023-12-20T16:04:55;13.6;;;5.5;;
79346;SDS011;68815;48.810;44.482;2023-12-20T16:07:57;11.2;;;5.1;;
79346;SDS011;68815;48.810;44.482;2023-12-20T16:10:59;10.9;;;5;;
79346;SDS011;68815;48.810;44.482;2023-12-20T16:14:01;10.8;;;4.7;;
79346;SDS011;68815;48.810;44.482;2023-12-20T16:17:03;10.4;;;4.2;;
79346;SDS011;68815;48.810;44.482;2023-12-20T16:20:06;10.7;;;4.8;;
79346;SDS011;68815;48.810;44.482;2023-12-20T16:23:08;10.6;;;4.6;;
79346;SDS011;68815;48.810;44.482;2023-12-20T16:26:12;11.5;;;4.6;;
79346;SDS011;68815;48.810;44.482;2023-12-20T16:29:14;10;;;4.5;;
79346;SDS011;68815;48.810;44.482;2023-12-20T16:32:17;11.2;;;4.9;;
79346;SDS011;68815;48.810;44.482;2023-12-20T16:35:19;12.5;;;5;;
79346;SDS011;68815;48.810;44.482;2023-12-20T16:38:20;10.6;;;4.9;;
79346;SDS011;68815;48.810;44.482;2023-12-20T16:41:22;10.9;;;4.7;;
79346;SDS011;68815;48.810;44.482;2023-12-20T16:44:24;11.5;;;5.1;;
79346;SDS011;68815;48.810;44.482;2023-12-20T16:47:26;10.2;;;4.6;;
79346;SDS011;68815;48.810;44.482;2023-12-20T16:50:28;9.4;;;4.6;;
79346;SDS011;68815;48.810;44.482;2023-12-20T16:53:30;11;;;4.5;;
79346;SDS011;68815;48.810;44.482;2023-12-20T16:56:32;8.5;;;4.3;;
79346;SDS011;68815;48.810;44.482;2023-12-20T16:59:34;8.6;;;4.5;;
79346;SDS011;68815;48.810;44.482;2023-12-20T17:02:36;8.2;;;4.3;;
79346;SDS011;68815;48.810;44.482;2023-12-20T17:05:38;8.7;;;4.6;;
79346;SDS011;68815;48.810;44.482;2023-12-20T17:08:41;10.4;;;5.1;;
79346;SDS011;68815;48.810;44.482;2023-12-20T17:11:43;10.2;;;5;;
79346;SDS011;68815;48.810;44.482;2023-12-20T17:14:45;10.7;;;4.6;;
79346;SDS011;68815;48.810;44.482;2023-12-20T17:17:47;9.5;;;4.7;;
79346;SDS011;68815;48.810;44.482;2023-12-20T17:20:59;9.3;;;4.4;;
79346;SDS011;68815;48.810;44.482;2023-12-20T17:24:02;8.8;;;4.4;;
79346;SDS011;68815;48.810;44.482;2023-12-20T17:27:04;8.7;;;3.9;;
79346;SDS011;68815;48.810;44.482;2023-12-20T17:30:07;8.3;;;4;;
79346;SDS011;68815;48.810;44.482;2023-12-20T17:33:09;9.2;;;3.8;;
79346;SDS011;68815;48.810;44.482;2023-12-20T17:36:11;9;;;4;;
79346;SDS011;68815;48.810;44.482;2023-12-20T17:39:13;7.3;;;3.5;;
79346;SDS011;68815;48.810;44.482;2023-12-20T17:42:14;10.4;;;3.9;;
79346;SDS011;68815;48.810;44.482;2023-12-20T17:45:16;8.6;;;3.4;;
79346;SDS011;68815;48.810;44.482;2023-12-20T17:48:18;7.2;;;3.5;;
79346;SDS011;68815;48.810;44.482;2023-12-20T17:51:20;9.9;;;3.9;;
79346;SDS011;68815;48.810;44.482;2023-12-20T17:54:22;6.8;;;3.5;;
79346;SDS011;68815;48.810;44.482;2023-12-20T17:57:24;7.4;;;3.4;;
79346;SDS011;68815;48.810;44.482;2023-12-20T18:00:27;6.4;;;2.9;;
79346;SDS011;68815;48.810;44.482;2023-12-20T18:03:33;8;;;3.3;;
79346;SDS011;68815;48.810;44.482;2023-12-20T18:06:36;7.4;;;2.8;;
79346;SDS011;68815;48.810;44.482;2023-12-20T18:09:38;6.8;;;2.7;;
79346;SDS011;68815;48.810;44.482;2023-12-20T18:12:40;7;;;2.9;;
79346;SDS011;68815;48.810;44.482;2023-12-20T18:15:41;6.2;;;2.7;;
79346;SDS011;68815;48.810;44.482;2023-12-20T18:18:44;6.1;;;2.7;;
79346;SDS011;68815;48.810;44.482;2023-12-20T18:21:46;6.5;;;2.7;;
79346;SDS011;68815;48.810;44.482;2023-12-20T18:24:47;5.8;;;2.1;;
79346;SDS011;68815;48.810;44.482;2023-12-20T18:27:49;5.5;;;2.5;;
79346;SDS011;68815;48.810;44.482;2023-12-20T18:30:52;6.8;;;2.3;;
79346;SDS011;68815;48.810;44.482;2023-12-20T18:33:55;6.6;;;2.8;;
79346;SDS011;68815;48.810;44.482;2023-12-20T18:36:57;6.3;;;2.2;;
79346;SDS011;68815;48.810;44.482;2023-12-20T18:39:59;6.4;;;2.5;;